createdAt,value
2018-05-07T00:01:36.909Z,72.57
2018-05-07T00:04:05.229Z,72.94
2018-05-07T00:06:33.701Z,73.95
2018-05-07T00:09:02.161Z,74.26
2018-05-07T00:11:36.862Z,74.87
2018-05-07T00:14:05.124Z,75.10
2018-05-07T00:16:33.459Z,75.28
2018-05-07T00:19:02.035Z,75.87
2018-05-07T00:21:30.356Z,75.62
2018-05-07T00:23:58.682Z,75.33
2018-05-07T00:26:27.031Z,76.08
2018-05-07T00:28:55.454Z,76.37
2018-05-07T00:31:23.856Z,75.88
2018-05-07T00:33:52.183Z,76.13
2018-05-07T00:36:20.508Z,76.07
2018-05-07T00:38:48.829Z,76.83
2018-05-07T00:41:17.201Z,75.91
2018-05-07T00:43:45.600Z,76.03
2018-05-07T00:46:13.977Z,77.03
2018-05-07T00:48:42.301Z,77.31
2018-05-07T00:51:10.665Z,77.12
2018-05-07T00:53:38.993Z,77.41
2018-05-07T00:56:07.484Z,77.84
2018-05-07T00:58:36.539Z,78.16
2018-05-07T01:01:04.864Z,77.95
2018-05-07T01:03:33.255Z,78.63
2018-05-07T01:06:01.616Z,78.86
2018-05-07T01:08:29.943Z,79.15
2018-05-07T01:10:58.273Z,79.60
2018-05-07T01:13:26.618Z,79.27
2018-05-07T01:15:55.157Z,78.83
2018-05-07T01:18:23.508Z,79.04
2018-05-07T01:20:51.823Z,79.38
2018-05-07T01:23:20.147Z,79.25
2018-05-07T01:25:48.458Z,79.57
2018-05-07T01:28:16.870Z,79.93
2018-05-07T01:30:45.303Z,80.16
2018-05-07T01:33:14.328Z,80.25
2018-05-07T01:35:42.715Z,80.11
2018-05-07T01:38:12.026Z,79.77
2018-05-07T01:40:40.401Z,79.78
2018-05-07T01:43:08.746Z,80.29
2018-05-07T01:45:37.134Z,80.54
2018-05-07T01:48:05.459Z,80.90
2018-05-07T01:50:33.781Z,81.15
2018-05-07T01:53:02.122Z,81.00
2018-05-07T01:55:30.424Z,81.39
2018-05-07T01:57:59.190Z,81.37
2018-05-07T02:00:28.320Z,81.26
2018-05-07T02:02:56.614Z,81.71
2018-05-07T02:05:25.040Z,81.58
2018-05-07T02:07:53.305Z,82.17
2018-05-07T02:10:21.647Z,81.87
2018-05-07T02:12:49.953Z,82.02
2018-05-07T02:15:18.263Z,81.84
2018-05-07T02:17:46.645Z,81.91
2018-05-07T02:20:15.044Z,81.81
2018-05-07T02:22:43.517Z,82.25
2018-05-07T02:25:11.844Z,82.54
2018-05-07T02:27:40.228Z,83.44
2018-05-07T02:30:08.542Z,83.17
2018-05-07T02:32:37.553Z,83.45
2018-05-07T02:35:05.916Z,83.13
2018-05-07T02:37:34.620Z,83.66
2018-05-07T02:40:03.710Z,84.01
2018-05-07T02:42:32.023Z,83.82
2018-05-07T02:45:00.409Z,83.90
2018-05-07T02:47:28.732Z,84.63
2018-05-07T02:49:57.278Z,85.08
2018-05-07T02:52:25.594Z,85.15
2018-05-07T02:54:53.892Z,84.89
2018-05-07T02:57:22.208Z,84.83
2018-05-07T02:59:50.525Z,84.83
2018-05-07T03:02:20.765Z,84.55
2018-05-07T03:04:49.066Z,84.96
2018-05-07T03:07:17.440Z,84.52
2018-05-07T03:09:45.735Z,84.61
2018-05-07T03:12:14.234Z,85.01
2018-05-07T03:14:42.525Z,85.10
2018-05-07T03:17:10.846Z,85.54
2018-05-07T03:19:39.205Z,85.43
2018-05-07T03:22:07.574Z,85.75
2018-05-07T03:24:35.872Z,85.39
2018-05-07T03:27:05.133Z,85.28
2018-05-07T03:29:33.650Z,85.24
2018-05-07T03:32:01.975Z,85.10
2018-05-07T03:34:30.310Z,85.15
2018-05-07T03:36:59.279Z,85.31
2018-05-07T03:39:27.622Z,85.79
2018-05-07T03:41:55.971Z,85.91
2018-05-07T03:44:25.113Z,86.01
2018-05-07T03:46:53.444Z,85.96
2018-05-07T03:49:21.779Z,85.69
2018-05-07T03:51:51.057Z,85.43
2018-05-07T03:54:19.388Z,85.35
2018-05-07T03:56:47.693Z,85.37
2018-05-07T03:59:16.026Z,85.28
2018-05-07T04:01:44.328Z,85.38
2018-05-07T04:04:12.761Z,85.06
2018-05-07T04:06:41.077Z,84.66
2018-05-07T04:09:09.385Z,84.56
2018-05-07T04:11:37.690Z,84.13
2018-05-07T04:14:06.131Z,84.79
2018-05-07T04:16:46.254Z,84.78
2018-05-07T04:19:26.358Z,84.86
2018-05-07T04:22:06.439Z,84.86
2018-05-07T04:24:34.777Z,84.65
2018-05-07T04:27:03.125Z,84.83
2018-05-07T04:29:31.417Z,84.39
2018-05-07T04:31:59.871Z,84.45
2018-05-07T04:34:28.274Z,84.46
2018-05-07T04:36:56.675Z,83.91
2018-05-07T04:39:25.024Z,83.52
2018-05-07T04:41:53.334Z,82.82
2018-05-07T04:44:21.646Z,83.42
2018-05-07T04:46:49.968Z,82.29
2018-05-07T04:49:18.295Z,81.41
2018-05-07T04:51:47.425Z,81.49
2018-05-07T04:54:16.037Z,81.07
2018-05-07T04:56:44.442Z,80.57
2018-05-07T04:59:12.879Z,81.01
2018-05-07T05:01:41.202Z,80.94
2018-05-07T05:04:09.569Z,81.15
2018-05-07T05:06:37.618Z,80.97
2018-05-07T05:09:05.999Z,80.77
2018-05-07T05:11:34.391Z,80.44
2018-05-07T05:14:02.755Z,80.46
2018-05-07T05:16:31.199Z,80.81
2018-05-07T05:18:59.610Z,80.30
2018-05-07T05:21:29.469Z,79.35
2018-05-07T05:23:57.703Z,78.67
2018-05-07T05:26:26.016Z,78.46
2018-05-07T05:28:54.384Z,78.00
2018-05-07T05:31:22.707Z,78.27
2018-05-07T05:33:51.034Z,77.50
2018-05-07T05:36:19.422Z,77.33
2018-05-07T05:38:47.745Z,77.41
2018-05-07T05:41:16.112Z,76.85
2018-05-07T05:43:44.572Z,76.11
2018-05-07T05:46:12.909Z,74.65
2018-05-07T05:48:41.245Z,70.85
2018-05-07T05:51:09.569Z,64.10
2018-05-07T05:53:37.996Z,58.74
2018-05-07T05:56:06.389Z,53.22
2018-05-07T05:58:34.716Z,49.25
2018-05-07T06:01:03.049Z,48.29
2018-05-07T06:03:31.380Z,48.26
2018-05-07T06:05:59.748Z,46.41
2018-05-07T06:08:28.133Z,44.52
2018-05-07T06:10:56.513Z,44.25
2018-05-07T06:13:24.848Z,42.78
2018-05-07T06:15:53.194Z,42.69
2018-05-07T06:18:21.621Z,42.27
2018-05-07T06:20:49.950Z,40.46
2018-05-07T06:23:18.344Z,40.54
2018-05-07T06:25:46.656Z,39.63
2018-05-07T06:28:14.993Z,37.49
2018-05-07T06:30:43.382Z,38.75
2018-05-07T06:33:11.730Z,38.99
2018-05-07T06:35:40.151Z,39.89
2018-05-07T06:38:08.480Z,39.12
2018-05-07T06:40:36.815Z,40.75
2018-05-07T06:43:05.210Z,38.41
2018-05-07T06:45:33.580Z,37.30
2018-05-07T06:48:01.880Z,37.60
2018-05-07T06:50:30.260Z,37.63
2018-05-07T06:52:58.705Z,36.76
2018-05-07T06:55:27.093Z,36.72
2018-05-07T06:57:55.481Z,39.77
2018-05-07T07:00:23.809Z,36.71
2018-05-07T07:02:52.249Z,37.61
2018-05-07T07:05:20.458Z,35.34
2018-05-07T07:07:48.864Z,34.84
2018-05-07T07:10:17.224Z,34.27
2018-05-07T07:12:45.622Z,34.07
2018-05-07T07:15:13.963Z,31.70
2018-05-07T07:17:42.319Z,36.84
2018-05-07T07:20:10.649Z,35.10
2018-05-07T07:22:38.960Z,34.00
2018-05-07T07:25:07.286Z,34.49
2018-05-07T07:27:35.673Z,33.79
2018-05-07T07:30:03.987Z,34.03
2018-05-07T07:32:32.312Z,32.65
2018-05-07T07:35:01.269Z,31.70
2018-05-07T07:37:29.659Z,30.27
2018-05-07T07:39:58.059Z,30.50
2018-05-07T07:42:26.430Z,30.87
2018-05-07T07:44:54.757Z,32.59
2018-05-07T07:47:23.088Z,31.39
2018-05-07T07:49:51.418Z,30.15
2018-05-07T07:52:19.767Z,29.64
2018-05-07T07:54:48.098Z,30.76
2018-05-07T07:57:16.427Z,29.50
2018-05-07T07:59:44.751Z,31.26
2018-05-07T08:02:13.088Z,33.68
2018-05-07T08:04:41.469Z,33.92
2018-05-07T08:07:10.116Z,34.65
2018-05-07T08:09:38.433Z,34.02
2018-05-07T08:12:06.866Z,30.21
2018-05-07T08:14:35.152Z,30.55
2018-05-07T08:17:03.550Z,31.41
2018-05-07T08:19:32.021Z,32.72
2018-05-07T08:22:00.358Z,32.84
2018-05-07T08:24:28.706Z,31.22
2018-05-07T08:26:57.099Z,30.93
2018-05-07T08:29:25.459Z,29.18
2018-05-07T08:31:53.768Z,29.50
2018-05-07T08:34:22.106Z,29.64
2018-05-07T08:36:50.459Z,31.13
2018-05-07T08:39:18.777Z,32.16
2018-05-07T08:41:47.103Z,30.32
2018-05-07T08:44:15.493Z,31.48
2018-05-07T08:46:43.800Z,33.19
2018-05-07T08:49:12.131Z,31.15
2018-05-07T08:51:40.457Z,30.55
2018-05-07T08:54:08.912Z,31.33
2018-05-07T08:56:37.215Z,31.26
2018-05-07T08:59:05.591Z,29.79
2018-05-07T09:01:33.894Z,30.24
2018-05-07T09:04:02.298Z,30.99
2018-05-07T09:06:30.653Z,30.11
2018-05-07T09:08:58.988Z,30.97
2018-05-07T09:11:27.359Z,30.24
2018-05-07T09:13:55.687Z,29.71
2018-05-07T09:16:24.036Z,30.71
2018-05-07T09:18:52.425Z,31.77
2018-05-07T09:21:20.769Z,28.78
2018-05-07T09:23:49.126Z,29.87
2018-05-07T09:26:17.450Z,30.59
2018-05-07T09:28:45.774Z,31.07
2018-05-07T09:31:14.108Z,30.27
2018-05-07T09:33:42.429Z,30.64
2018-05-07T09:36:10.739Z,29.41
2018-05-07T09:38:39.146Z,30.79
2018-05-07T09:41:07.479Z,31.11
2018-05-07T09:43:35.828Z,30.21
2018-05-07T09:46:04.141Z,30.81
2018-05-07T09:48:32.480Z,30.49
2018-05-07T09:51:00.811Z,29.28
2018-05-07T09:53:29.307Z,28.70
2018-05-07T09:55:57.702Z,29.98
2018-05-07T09:58:26.026Z,30.83
2018-05-07T10:00:54.340Z,30.48
2018-05-07T10:03:22.664Z,31.31
2018-05-07T10:05:50.992Z,29.51
2018-05-07T10:08:19.338Z,29.23
2018-05-07T10:10:47.692Z,30.75
2018-05-07T10:13:16.018Z,32.70
2018-05-07T10:15:44.449Z,32.51
2018-05-07T10:18:12.780Z,31.22
2018-05-07T10:20:41.098Z,32.79
2018-05-07T10:23:09.418Z,30.96
2018-05-07T10:25:37.735Z,31.45
2018-05-07T10:28:06.086Z,29.24
2018-05-07T10:30:34.461Z,30.76
2018-05-07T10:33:02.781Z,29.37
2018-05-07T10:35:31.088Z,30.10
2018-05-07T10:37:59.421Z,29.82
2018-05-07T10:40:27.736Z,30.29
2018-05-07T10:42:56.071Z,31.10
2018-05-07T10:45:24.390Z,28.54
2018-05-07T10:47:52.728Z,30.18
2018-05-07T10:50:21.045Z,30.65
2018-05-07T10:52:49.378Z,30.82
2018-05-07T10:55:17.717Z,29.86
2018-05-07T10:57:46.042Z,27.81
2018-05-07T11:00:14.473Z,27.67
2018-05-07T11:02:42.864Z,27.46
2018-05-07T11:05:11.260Z,28.37
2018-05-07T11:07:39.578Z,27.33
2018-05-07T11:10:07.947Z,28.03
2018-05-07T11:12:36.344Z,28.60
2018-05-07T11:15:04.732Z,29.41
2018-05-07T11:17:33.048Z,30.15
2018-05-07T11:20:01.420Z,28.01
2018-05-07T11:22:29.847Z,28.08
2018-05-07T11:24:58.203Z,28.26
2018-05-07T11:27:26.547Z,30.62
2018-05-07T11:29:54.869Z,28.58
2018-05-07T11:32:23.219Z,27.28
2018-05-07T11:34:51.567Z,27.08
2018-05-07T11:37:19.912Z,26.87
2018-05-07T11:39:48.225Z,29.88
2018-05-07T11:42:16.661Z,27.13
2018-05-07T11:44:44.983Z,27.50
2018-05-07T11:47:13.333Z,26.93
2018-05-07T11:49:41.718Z,28.58
2018-05-07T11:52:10.056Z,26.67
2018-05-07T11:54:38.405Z,28.68
2018-05-07T11:57:06.750Z,26.67
2018-05-07T11:59:35.062Z,26.48
2018-05-07T12:02:03.383Z,26.95
2018-05-07T12:04:31.706Z,25.42
2018-05-07T12:07:00.040Z,25.12
2018-05-07T12:09:28.363Z,26.26
2018-05-07T12:11:56.700Z,26.14
2018-05-07T12:14:25.146Z,26.18
2018-05-07T12:16:53.443Z,26.66
2018-05-07T12:19:21.782Z,29.07
2018-05-07T12:21:50.152Z,27.28
2018-05-07T12:24:18.466Z,26.04
2018-05-07T12:26:46.916Z,25.28
2018-05-07T12:29:15.242Z,26.94
2018-05-07T12:31:43.776Z,24.42
2018-05-07T12:34:11.984Z,25.14
2018-05-07T12:36:40.314Z,25.59
2018-05-07T12:39:08.713Z,24.04
2018-05-07T12:41:37.047Z,24.81
2018-05-07T12:44:05.405Z,25.19
2018-05-07T12:46:33.806Z,26.46
2018-05-07T12:49:02.141Z,26.00
2018-05-07T12:51:30.494Z,24.39
2018-05-07T12:53:58.827Z,25.37
2018-05-07T12:56:27.168Z,24.14
2018-05-07T12:58:55.501Z,23.26
2018-05-07T13:01:24.017Z,24.10
2018-05-07T13:03:52.355Z,24.97
2018-05-07T13:06:20.729Z,23.97
2018-05-07T13:08:49.043Z,24.07
2018-05-07T13:11:17.427Z,23.93
2018-05-07T13:13:45.834Z,24.64
2018-05-07T13:16:14.168Z,23.83
2018-05-07T13:18:42.490Z,23.67
2018-05-07T13:21:10.933Z,23.54
2018-05-07T13:23:39.233Z,23.81
2018-05-07T13:26:07.653Z,23.09
2018-05-07T13:28:35.975Z,23.85
2018-05-07T13:31:04.358Z,23.18
2018-05-07T13:33:32.695Z,23.94
2018-05-07T13:36:01.025Z,24.20
2018-05-07T13:38:29.390Z,24.39
2018-05-07T13:40:57.746Z,24.92
2018-05-07T13:43:26.107Z,24.16
2018-05-07T13:45:54.459Z,24.76
2018-05-07T13:48:22.785Z,25.08
2018-05-07T13:50:51.105Z,25.18
2018-05-07T13:53:19.488Z,25.23
2018-05-07T13:55:47.872Z,26.15
2018-05-07T13:58:16.266Z,25.78
2018-05-07T14:00:44.577Z,25.12
2018-05-07T14:03:12.919Z,24.25
2018-05-07T14:05:41.313Z,24.19
2018-05-07T14:08:09.723Z,24.20
2018-05-07T14:10:38.041Z,24.50
2018-05-07T14:13:06.382Z,24.06
2018-05-07T14:15:35.163Z,24.49
2018-05-07T14:18:03.492Z,26.00
2018-05-07T14:20:31.805Z,25.79
2018-05-07T14:23:00.129Z,24.67
2018-05-07T14:25:28.481Z,24.62
2018-05-07T14:27:56.813Z,25.34
2018-05-07T14:30:25.163Z,25.27
2018-05-07T14:32:53.491Z,24.55
2018-05-07T14:35:21.824Z,25.82
2018-05-07T14:37:50.178Z,27.58
2018-05-07T14:40:18.512Z,29.75
2018-05-07T14:42:46.912Z,25.32
2018-05-07T14:45:15.151Z,25.21
2018-05-07T14:47:43.465Z,24.69
2018-05-07T14:50:11.826Z,27.44
2018-05-07T14:52:40.130Z,28.04
2018-05-07T14:55:08.449Z,27.26
2018-05-07T14:57:36.759Z,26.64
2018-05-07T15:00:05.176Z,26.13
2018-05-07T15:02:33.502Z,27.64
2018-05-07T15:05:01.837Z,26.37
2018-05-07T15:07:30.494Z,27.87
2018-05-07T15:09:58.858Z,26.87
2018-05-07T15:12:27.174Z,27.04
2018-05-07T15:14:55.599Z,28.69
2018-05-07T15:17:23.925Z,27.18
2018-05-07T15:19:52.299Z,26.96
2018-05-07T15:22:20.681Z,26.70
2018-05-07T15:24:49.077Z,28.18
2018-05-07T15:27:17.407Z,27.83
2018-05-07T15:29:45.750Z,28.01
2018-05-07T15:32:14.141Z,27.86
2018-05-07T15:34:42.472Z,29.14
2018-05-07T15:37:10.795Z,29.50
2018-05-07T15:39:39.229Z,30.63
2018-05-07T15:42:07.611Z,31.73
2018-05-07T15:44:36.093Z,29.90
2018-05-07T15:47:04.526Z,30.32
2018-05-07T15:49:32.861Z,30.48
2018-05-07T15:52:01.217Z,30.97
2018-05-07T15:54:29.547Z,30.28
2018-05-07T15:56:57.868Z,30.96
2018-05-07T15:59:26.207Z,30.60
2018-05-07T16:01:54.529Z,30.34
2018-05-07T16:04:22.876Z,31.31
2018-05-07T16:06:51.241Z,30.73
2018-05-07T16:09:19.579Z,30.65
2018-05-07T16:11:47.917Z,32.11
2018-05-07T16:14:16.317Z,30.66
2018-05-07T16:16:44.627Z,31.60
2018-05-07T16:19:13.055Z,30.87
2018-05-07T16:21:41.402Z,30.58
2018-05-07T16:24:09.774Z,31.87
2018-05-07T16:26:38.148Z,32.37
2018-05-07T16:29:06.482Z,32.21
2018-05-07T16:31:34.883Z,33.52
2018-05-07T16:34:03.206Z,32.05
2018-05-07T16:36:31.631Z,32.53
2018-05-07T16:38:59.983Z,33.42
2018-05-07T16:41:28.415Z,32.82
2018-05-07T16:43:56.729Z,32.76
2018-05-07T16:46:25.129Z,33.23
2018-05-07T16:48:53.539Z,33.10
2018-05-07T16:51:21.862Z,33.04
2018-05-07T16:53:50.285Z,32.59
2018-05-07T16:56:18.625Z,33.38
2018-05-07T16:58:46.958Z,34.21
2018-05-07T17:01:15.358Z,34.59
2018-05-07T17:03:43.841Z,34.98
2018-05-07T17:06:12.209Z,35.64
2018-05-07T17:08:40.619Z,37.49
2018-05-07T17:11:09.033Z,36.09
2018-05-07T17:13:37.336Z,36.55
2018-05-07T17:16:05.650Z,36.78
2018-05-07T17:18:34.035Z,36.78
2018-05-07T17:21:02.478Z,37.33
2018-05-07T17:23:30.818Z,37.39
2018-05-07T17:25:59.148Z,37.73
2018-05-07T17:28:27.570Z,38.38
2018-05-07T17:30:55.879Z,37.90
2018-05-07T17:33:24.196Z,38.30
2018-05-07T17:35:52.503Z,38.71
2018-05-07T17:38:20.851Z,39.20
2018-05-07T17:40:49.199Z,39.15
2018-05-07T17:43:17.716Z,39.20
2018-05-07T17:45:59.714Z,39.14
2018-05-07T17:48:39.894Z,41.16
2018-05-07T17:51:08.268Z,41.00
2018-05-07T17:53:36.587Z,40.38
2018-05-07T17:56:04.974Z,41.11
2018-05-07T17:58:33.283Z,42.03
2018-05-07T18:01:01.638Z,42.07
2018-05-07T18:03:29.962Z,42.21
2018-05-07T18:05:58.319Z,41.97
2018-05-07T18:08:26.653Z,41.95
2018-05-07T18:10:55.076Z,43.84
2018-05-07T18:13:23.420Z,42.62
2018-05-07T18:15:51.833Z,44.14
2018-05-07T18:18:20.161Z,43.85
2018-05-07T18:20:48.601Z,45.69
2018-05-07T18:23:16.944Z,50.16
2018-05-07T18:25:45.335Z,47.75
2018-05-07T18:28:13.786Z,48.76
2018-05-07T18:30:42.137Z,48.16
2018-05-07T18:33:10.469Z,49.06
2018-05-07T18:35:38.778Z,48.44
2018-05-07T18:38:07.155Z,47.79
2018-05-07T18:40:35.465Z,47.65
2018-05-07T18:43:03.828Z,46.69
2018-05-07T18:45:32.211Z,48.12
2018-05-07T18:48:00.686Z,47.83
2018-05-07T18:50:29.074Z,48.25
2018-05-07T18:52:57.413Z,48.30
2018-05-07T18:55:25.773Z,49.05
2018-05-07T18:57:54.111Z,50.79
2018-05-07T19:00:22.489Z,50.05
2018-05-07T19:02:50.834Z,52.09
2018-05-07T19:05:19.149Z,53.29
2018-05-07T19:07:47.537Z,52.31
2018-05-07T19:10:15.932Z,52.34
2018-05-07T19:12:44.279Z,54.53
2018-05-07T19:15:12.617Z,54.86
2018-05-07T19:17:41.013Z,54.27
2018-05-07T19:20:09.398Z,50.25
2018-05-07T19:22:37.785Z,52.07
2018-05-07T19:25:06.164Z,54.78
2018-05-07T19:27:34.531Z,52.37
2018-05-07T19:30:02.864Z,53.45
2018-05-07T19:32:31.248Z,55.69
2018-05-07T19:34:59.596Z,55.63
2018-05-07T19:37:27.953Z,58.14
2018-05-07T19:39:56.456Z,58.13
2018-05-07T19:42:24.700Z,58.62
2018-05-07T19:44:53.103Z,58.72
2018-05-07T19:47:21.449Z,59.50
2018-05-07T19:49:49.778Z,59.29
2018-05-07T19:52:18.189Z,59.52
2018-05-07T19:54:46.523Z,59.97
2018-05-07T19:57:14.853Z,60.20
2018-05-07T19:59:43.189Z,60.76
2018-05-07T20:02:11.531Z,61.47
2018-05-07T20:04:39.874Z,61.21
2018-05-07T20:07:08.256Z,62.40
2018-05-07T20:09:36.591Z,62.46
2018-05-07T20:12:04.936Z,62.08
2018-05-07T20:14:33.430Z,62.05
2018-05-07T20:17:01.810Z,61.52
2018-05-07T20:19:30.155Z,63.46
2018-05-07T20:21:58.596Z,63.67
2018-05-07T20:24:26.914Z,64.22
2018-05-07T20:26:55.240Z,63.98
2018-05-07T20:29:23.602Z,63.16
2018-05-07T20:31:51.920Z,63.67
2018-05-07T20:34:20.260Z,64.74
2018-05-07T20:36:48.567Z,64.89
2018-05-07T20:39:16.895Z,64.70
2018-05-07T20:41:45.338Z,66.27
2018-05-07T20:44:14.089Z,65.37
2018-05-07T20:46:42.405Z,65.05
2018-05-07T20:49:10.803Z,66.60
2018-05-07T20:51:39.173Z,66.44
2018-05-07T20:54:07.585Z,66.39
2018-05-07T20:56:35.917Z,66.93
2018-05-07T20:59:04.261Z,66.77
2018-05-07T21:01:32.606Z,67.10
2018-05-07T21:04:01.011Z,66.86
2018-05-07T21:06:29.337Z,66.63
2018-05-07T21:08:57.673Z,66.14
2018-05-07T21:11:26.026Z,66.35
2018-05-07T21:13:54.408Z,67.03
2018-05-07T21:16:22.767Z,66.51
2018-05-07T21:18:51.084Z,66.47
2018-05-07T21:21:19.484Z,65.96
2018-05-07T21:23:47.763Z,66.93
2018-05-07T21:26:16.111Z,66.91
2018-05-07T21:28:44.571Z,67.76
2018-05-07T21:31:12.890Z,66.91
2018-05-07T21:33:41.273Z,62.09
2018-05-07T21:36:09.675Z,62.19
2018-05-07T21:38:38.033Z,62.20
2018-05-07T21:41:06.386Z,63.15
2018-05-07T21:43:34.726Z,63.04
2018-05-07T21:46:03.099Z,64.29
2018-05-07T21:48:31.414Z,63.96
2018-05-07T21:50:59.763Z,64.00
2018-05-07T21:53:28.082Z,63.18
2018-05-07T21:55:56.422Z,63.42
2018-05-07T21:58:24.753Z,63.58
2018-05-07T22:00:53.164Z,64.55
2018-05-07T22:03:21.572Z,63.90
2018-05-07T22:05:49.931Z,64.06
2018-05-07T22:08:18.330Z,64.37
2018-05-07T22:10:46.743Z,65.00
2018-05-07T22:13:15.056Z,65.46
2018-05-07T22:15:43.926Z,65.41
2018-05-07T22:18:12.245Z,65.67
2018-05-07T22:20:40.621Z,65.02
2018-05-07T22:23:09.019Z,65.25
2018-05-07T22:25:37.353Z,66.87
2018-05-07T22:28:05.823Z,67.25
2018-05-07T22:30:34.172Z,68.30
2018-05-07T22:33:02.578Z,68.12
2018-05-07T22:35:30.899Z,68.30
2018-05-07T22:37:59.251Z,69.16
2018-05-07T22:40:27.588Z,68.92
2018-05-07T22:42:55.915Z,69.78
2018-05-07T22:45:24.449Z,70.71
2018-05-07T22:47:52.846Z,69.84
2018-05-07T22:50:21.220Z,70.13
2018-05-07T22:52:49.619Z,69.67
2018-05-07T22:55:20.657Z,70.53
2018-05-07T22:57:48.984Z,69.12
2018-05-07T23:00:17.310Z,69.69
2018-05-07T23:02:48.478Z,69.60
2018-05-07T23:05:16.801Z,70.89
2018-05-07T23:07:45.384Z,71.57
2018-05-07T23:10:13.795Z,70.90
2018-05-07T23:12:42.106Z,70.48
2018-05-07T23:15:10.454Z,71.83
2018-05-07T23:17:38.967Z,71.83
2018-05-07T23:20:07.302Z,71.90
2018-05-07T23:22:35.627Z,72.52
2018-05-07T23:25:04.047Z,73.22
2018-05-07T23:27:32.381Z,73.20
2018-05-07T23:30:00.688Z,73.17
2018-05-07T23:32:29.031Z,74.10
2018-05-07T23:34:57.382Z,74.12
2018-05-07T23:37:25.790Z,74.45
2018-05-07T23:39:54.179Z,73.56
2018-05-07T23:42:22.498Z,73.96
2018-05-07T23:44:50.823Z,74.40
2018-05-07T23:47:19.152Z,74.46
2018-05-07T23:49:47.463Z,73.86
2018-05-07T23:52:15.800Z,74.22
2018-05-07T23:54:44.147Z,74.51
2018-05-07T23:57:12.467Z,75.31
2018-05-07T23:59:40.789Z,75.72
